Time;durP1;ratioP1;P1;durP2;ratioP2;P2;SDS_P1;SDS_P2;PMS_P1;PMS_P2;Temp;Humidity;BMP_temperature;BMP_pressure;BME280_temperature;BME280_humidity;BME280_pressure;Samples;Min_cycle;Max_cycle;Signal;HPM_P1;HPM_P2
2021/09/30 00:00:59;;;;;;;0.20;0.20;;;11.40;99.90;;;;;;4961109;28;20065;-78
2021/09/30 00:03:25;;;;;;;0.20;0.20;;;11.40;99.90;;;;;;4977838;28;20030;-78
2021/09/30 00:05:51;;;;;;;0.20;0.20;;;11.50;99.90;;;;;;4978424;28;20154;-78
2021/09/30 00:08:16;;;;;;;0.10;0.10;;;11.30;99.90;;;;;;4978790;28;20042;-78
2021/09/30 00:11:00;;;;;;;0.20;0.20;;;11.20;99.90;;;;;;4977493;28;20140;-78
2021/09/30 00:40:27;;;;;;;0.20;0.20;;;10.90;99.90;;;;;;4978264;28;20031;-78
2021/09/30 00:48:32;;;;;;;0.20;0.20;;;11.00;99.90;;;;;;4978368;28;20049;-78
2021/09/30 00:51:21;;;;;;;0.20;0.20;;;10.90;99.90;;;;;;4979101;28;20155;-78
2021/09/30 01:20:51;;;;;;;0.20;0.20;;;10.70;99.90;;;;;;4977126;28;20015;-78
2021/09/30 02:19:06;;;;;;;0.20;0.20;;;10.40;99.90;;;;;;4975083;28;20073;-78
2021/09/30 02:24:22;;;;;;;0.15;0.15;;;10.40;99.90;;;;;;4977270;28;20023;-78
2021/09/30 02:29:46;;;;;;;0.32;0.32;;;10.60;99.90;;;;;;4978128;28;20031;-78
2021/09/30 02:38:56;;;;;;;0.20;0.20;;;10.50;99.90;;;;;;4980469;28;20073;-79
2021/09/30 03:00:04;;;;;;;0.20;0.20;;;10.90;99.90;;;;;;4978607;28;20090;-78
2021/09/30 03:02:31;;;;;;;0.28;0.28;;;10.70;99.90;;;;;;4963554;28;20027;-78
2021/09/30 03:04:59;;;;;;;0.20;0.20;;;10.70;99.90;;;;;;4979491;28;20502;-78
2021/09/30 03:07:25;;;;;;;0.20;0.20;;;10.70;99.90;;;;;;4981029;28;20038;-78
2021/09/30 03:09:53;;;;;;;0.10;0.10;;;10.80;99.90;;;;;;4980665;28;20105;-78
2021/09/30 03:15:54;;;;;;;0.17;0.15;;;10.80;99.90;;;;;;4979551;28;20537;-78
2021/09/30 03:17:54;;;;;;;0.10;0.10;;;10.80;99.90;;;;;;4965654;28;20031;-77
2021/09/30 03:23:11;;;;;;;0.20;0.20;;;10.50;99.90;;;;;;4980019;28;20033;-78
2021/09/30 03:25:39;;;;;;;0.20;0.20;;;10.50;99.90;;;;;;4979632;28;20023;-78
2021/09/30 03:28:05;;;;;;;0.40;0.40;;;10.50;99.90;;;;;;4978685;28;20019;-78
2021/09/30 03:30:32;;;;;;;0.20;0.20;;;10.40;99.90;;;;;;4979598;28;20078;-78
2021/09/30 03:33:03;;;;;;;0.20;0.20;;;10.30;99.90;;;;;;4979221;28;20105;-78
2021/09/30 03:35:30;;;;;;;0.20;0.20;;;10.30;99.90;;;;;;4980154;28;20058;-78
2021/09/30 03:37:55;;;;;;;0.30;0.30;;;10.40;99.90;;;;;;4962757;28;20038;-78
2021/09/30 03:40:21;;;;;;;0.20;0.20;;;10.40;99.90;;;;;;4979736;28;20038;-78
2021/09/30 03:42:47;;;;;;;0.20;0.20;;;10.30;99.90;;;;;;4979657;28;20447;-79
2021/09/30 03:45:13;;;;;;;0.20;0.20;;;10.30;99.90;;;;;;4979418;28;20364;-79
2021/09/30 03:47:38;;;;;;;0.17;0.17;;;10.30;99.90;;;;;;4979593;28;20033;-78
2021/09/30 03:50:09;;;;;;;0.30;0.30;;;10.30;99.90;;;;;;4978301;28;20114;-78
2021/09/30 03:55:25;;;;;;;0.20;0.20;;;10.30;99.90;;;;;;4977929;28;20031;-78
2021/09/30 03:59:08;;;;;;;0.20;0.20;;;10.20;99.90;;;;;;4978076;28;20394;-78
2021/09/30 04:00:37;;;;;;;0.20;0.20;;;10.20;99.90;;;;;;4979388;28;20045;-78
2021/09/30 04:03:04;;;;;;;0.25;0.25;;;10.10;99.90;;;;;;4977767;28;20037;-77
2021/09/30 04:05:30;;;;;;;0.20;0.20;;;10.10;99.90;;;;;;4978797;28;20069;-78
2021/09/30 04:07:56;;;;;;;0.30;0.30;;;10.00;99.90;;;;;;4977565;28;20034;-77
2021/09/30 04:10:21;;;;;;;0.30;0.30;;;9.80;99.90;;;;;;4977464;28;20122;-78
2021/09/30 04:12:47;;;;;;;0.32;0.32;;;9.90;99.90;;;;;;4978203;28;20026;-77
2021/09/30 04:15:13;;;;;;;0.30;0.30;;;9.90;99.90;;;;;;4977488;28;20015;-78
2021/09/30 04:17:39;;;;;;;0.20;0.20;;;9.90;99.90;;;;;;4978333;28;20045;-79
2021/09/30 04:20:05;;;;;;;1.33;0.95;;;9.80;99.90;;;;;;4977105;28;20053;-77
2021/09/30 04:22:31;;;;;;;0.20;0.20;;;9.70;99.90;;;;;;4977300;28;20027;-78
2021/09/30 04:24:57;;;;;;;0.20;0.20;;;9.70;99.90;;;;;;4978486;28;20069;-78
2021/09/30 04:27:23;;;;;;;0.20;0.20;;;9.80;99.90;;;;;;4977189;28;20026;-78
2021/09/30 04:29:48;;;;;;;0.20;0.20;;;9.80;99.90;;;;;;4961513;28;20434;-78
2021/09/30 04:32:15;;;;;;;0.30;0.30;;;9.80;99.90;;;;;;4976610;28;20487;-78
2021/09/30 04:34:40;;;;;;;0.20;0.20;;;9.70;99.90;;;;;;4977607;28;20029;-78
2021/09/30 04:37:06;;;;;;;0.20;0.20;;;9.70;99.90;;;;;;4976518;28;20054;-78
2021/09/30 04:39:33;;;;;;;0.65;0.65;;;9.60;99.90;;;;;;4977938;28;20031;-79
2021/09/30 04:41:58;;;;;;;0.35;0.35;;;9.60;99.90;;;;;;4976435;28;20035;-78
2021/09/30 04:44:24;;;;;;;0.20;0.20;;;9.60;99.90;;;;;;4960071;28;20034;-79
2021/09/30 04:46:50;;;;;;;0.20;0.20;;;9.60;99.90;;;;;;4977121;28;20027;-78
2021/09/30 04:49:16;;;;;;;0.20;0.20;;;9.60;99.90;;;;;;4976243;28;20030;-78
2021/09/30 04:51:42;;;;;;;0.20;0.20;;;9.60;99.90;;;;;;4976866;28;20023;-78
2021/09/30 04:54:08;;;;;;;0.20;0.20;;;9.80;99.90;;;;;;4960286;28;20023;-78
2021/09/30 04:56:34;;;;;;;0.20;0.20;;;9.80;99.90;;;;;;4976447;28;20557;-78
2021/09/30 04:59:03;;;;;;;0.20;0.20;;;10.00;99.90;;;;;;4977735;28;20029;-78
2021/09/30 05:01:29;;;;;;;0.30;0.30;;;10.00;99.90;;;;;;4978403;28;20025;-78
2021/09/30 05:03:55;;;;;;;0.20;0.20;;;10.10;99.90;;;;;;4961115;28;20053;-78
2021/09/30 05:06:21;;;;;;;0.20;0.20;;;10.10;99.90;;;;;;4977197;28;20046;-78
2021/09/30 05:08:56;;;;;;;0.20;0.20;;;9.90;99.90;;;;;;4976792;28;20046;-79
2021/09/30 05:11:22;;;;;;;0.20;0.20;;;10.00;99.90;;;;;;4978231;28;20046;-78
2021/09/30 05:13:52;;;;;;;0.38;0.38;;;10.10;99.90;;;;;;4977661;28;20033;-78
2021/09/30 05:16:18;;;;;;;0.20;0.20;;;10.10;99.90;;;;;;4977772;28;20315;-78
2021/09/30 05:18:49;;;;;;;0.10;0.10;;;10.10;99.90;;;;;;4977438;28;20027;-78
2021/09/30 05:21:15;;;;;;;0.10;0.10;;;10.00;99.90;;;;;;4976499;28;20398;-78
2021/09/30 05:23:41;;;;;;;0.10;0.10;;;10.00;99.90;;;;;;4976857;28;20031;-78
2021/09/30 05:26:07;;;;;;;0.20;0.20;;;10.20;99.90;;;;;;4977838;28;20035;-77
2021/09/30 05:28:33;;;;;;;0.20;0.20;;;10.50;99.90;;;;;;4978007;28;20030;-78
2021/09/30 05:31:00;;;;;;;0.20;0.20;;;10.50;99.90;;;;;;4977108;28;20102;-79
2021/09/30 05:33:26;;;;;;;0.20;0.20;;;10.60;99.90;;;;;;4970004;28;20407;-78
2021/09/30 05:35:53;;;;;;;0.20;0.20;;;10.70;99.90;;;;;;4957724;29;20109;-78
2021/09/30 05:38:19;;;;;;;0.20;0.20;;;10.60;99.90;;;;;;4942041;29;20031;-79
2021/09/30 05:40:48;;;;;;;0.20;0.20;;;10.60;99.90;;;;;;4970494;28;20030;-78
2021/09/30 05:43:21;;;;;;;0.20;0.20;;;10.60;99.90;;;;;;4978489;28;20047;-77
2021/09/30 05:45:52;;;;;;;0.20;0.20;;;10.60;99.90;;;;;;4976278;28;20065;-79
2021/09/30 05:48:18;;;;;;;0.32;0.32;;;10.50;99.90;;;;;;4988913;28;20026;-78
2021/09/30 05:50:44;;;;;;;0.30;0.30;;;10.50;99.90;;;;;;4978345;28;20027;-79
2021/09/30 05:53:10;;;;;;;0.40;0.40;;;10.50;99.90;;;;;;4977429;28;20069;-78
2021/09/30 05:55:35;;;;;;;0.20;0.20;;;10.60;99.90;;;;;;4976845;28;20090;-78
2021/09/30 05:58:01;;;;;;;0.20;0.20;;;10.60;99.90;;;;;;4977639;28;20027;-78
2021/09/30 06:00:36;;;;;;;0.20;0.20;;;10.60;99.90;;;;;;4976494;28;20027;-78
2021/09/30 06:10:59;;;;;;;0.10;0.10;;;10.60;99.90;;;;;;4975140;28;20026;-77
2021/09/30 06:13:37;;;;;;;0.20;0.20;;;10.70;99.90;;;;;;4976321;28;20390;-77
2021/09/30 06:16:11;;;;;;;0.30;0.30;;;10.70;99.90;;;;;;4976731;28;20034;-78
2021/09/30 06:18:37;;;;;;;0.28;0.28;;;10.80;99.90;;;;;;4990045;28;20394;-76
2021/09/30 06:21:02;;;;;;;0.10;0.10;;;10.60;99.90;;;;;;4948520;29;20027;-78
2021/09/30 06:23:28;;;;;;;0.15;0.15;;;10.50;99.90;;;;;;4968626;28;20035;-77
2021/09/30 06:25:54;;;;;;;0.13;0.13;;;10.60;99.90;;;;;;4976845;28;20026;-77
2021/09/30 06:28:19;;;;;;;0.20;0.20;;;10.70;99.90;;;;;;4962657;28;20068;-77
2021/09/30 06:30:45;;;;;;;0.20;0.20;;;10.80;99.90;;;;;;4957739;29;20094;-77
2021/09/30 06:33:11;;;;;;;2.03;0.47;;;10.80;99.90;;;;;;4957804;28;20525;-77
2021/09/30 06:35:37;;;;;;;0.10;0.10;;;10.90;99.90;;;;;;4959338;28;20055;-78
2021/09/30 06:38:02;;;;;;;0.17;0.17;;;11.00;99.90;;;;;;4975519;28;20173;-77
2021/09/30 06:40:30;;;;;;;0.10;0.10;;;11.00;99.90;;;;;;4993650;28;20495;-77
2021/09/30 06:42:55;;;;;;;0.20;0.20;;;11.20;99.90;;;;;;4995403;28;20089;-77
2021/09/30 06:45:21;;;;;;;0.20;0.20;;;11.30;99.90;;;;;;4996321;28;20026;-78
2021/09/30 06:47:47;;;;;;;0.17;0.17;;;11.20;99.90;;;;;;4979218;28;20030;-77
2021/09/30 06:50:14;;;;;;;0.20;0.20;;;11.40;99.90;;;;;;4996670;28;20089;-78
2021/09/30 06:52:41;;;;;;;0.20;0.20;;;11.50;99.90;;;;;;4994868;28;20097;-77
2021/09/30 06:55:07;;;;;;;0.20;0.20;;;11.60;99.90;;;;;;4995392;28;20042;-77
2021/09/30 06:57:33;;;;;;;0.20;0.20;;;11.60;99.90;;;;;;4979762;28;20034;-76
2021/09/30 07:00:02;;;;;;;0.15;0.15;;;11.50;99.90;;;;;;5001142;28;20037;-76
2021/09/30 07:02:27;;;;;;;0.35;0.35;;;11.40;99.90;;;;;;4975731;28;20061;-76
2021/09/30 07:04:53;;;;;;;0.10;0.10;;;11.40;99.90;;;;;;5009999;28;20054;-75
2021/09/30 07:07:19;;;;;;;0.20;0.20;;;11.50;99.90;;;;;;4978244;28;20085;-76
2021/09/30 07:09:45;;;;;;;0.22;0.22;;;11.70;99.90;;;;;;4994169;28;20057;-76
2021/09/30 07:12:12;;;;;;;0.32;0.32;;;11.90;99.90;;;;;;4993889;28;20045;-75
2021/09/30 07:14:39;;;;;;;0.10;0.10;;;12.00;99.90;;;;;;4994711;28;20152;-76
2021/09/30 07:17:05;;;;;;;0.20;0.20;;;11.90;99.90;;;;;;4994175;28;20082;-76
2021/09/30 07:19:33;;;;;;;0.10;0.10;;;12.10;99.90;;;;;;4994974;28;20026;-74
2021/09/30 07:22:00;;;;;;;0.20;0.20;;;12.00;99.90;;;;;;4994912;28;20019;-75
2021/09/30 07:24:25;;;;;;;0.10;0.10;;;12.00;99.90;;;;;;5009781;28;20117;-75
2021/09/30 07:26:51;;;;;;;0.10;0.10;;;12.20;99.90;;;;;;4977131;28;20142;-75
2021/09/30 07:29:17;;;;;;;0.10;0.10;;;12.30;99.90;;;;;;4994802;28;20558;-75
2021/09/30 07:31:43;;;;;;;0.20;0.20;;;12.30;99.90;;;;;;4994708;28;20030;-75
2021/09/30 07:34:12;;;;;;;0.40;0.38;;;12.30;99.90;;;;;;4994891;28;20073;-75
2021/09/30 07:36:43;;;;;;;38.90;1.38;;;12.20;99.90;;;;;;4977198;28;20026;-75
2021/09/30 07:39:10;;;;;;;0.20;0.20;;;12.10;99.90;;;;;;4993491;28;20034;-75
2021/09/30 07:41:36;;;;;;;0.13;0.13;;;12.00;99.90;;;;;;4993755;28;20034;-75
2021/09/30 07:44:03;;;;;;;0.10;0.10;;;12.00;99.90;;;;;;4980793;28;20089;-75
2021/09/30 07:46:34;;;;;;;0.10;0.10;;;12.00;99.90;;;;;;4971943;28;20057;-75
2021/09/30 07:49:03;;;;;;;0.17;0.17;;;12.20;99.90;;;;;;4954499;28;20582;-75
2021/09/30 07:51:28;;;;;;;0.10;0.10;;;12.30;99.90;;;;;;4962145;28;20023;-75
2021/09/30 07:53:54;;;;;;;0.20;0.20;;;12.30;99.90;;;;;;4973837;28;20027;-75
2021/09/30 07:56:20;;;;;;;0.13;0.13;;;12.10;99.90;;;;;;4973555;28;20023;-75
2021/09/30 07:58:46;;;;;;;0.17;0.17;;;12.20;99.90;;;;;;4976089;28;20705;-75
2021/09/30 08:01:12;;;;;;;0.20;0.20;;;12.40;99.90;;;;;;4961640;28;20055;-76
2021/09/30 08:03:37;;;;;;;0.20;0.20;;;12.50;99.90;;;;;;4992246;28;20027;-75
2021/09/30 08:06:04;;;;;;;0.20;0.20;;;12.50;99.90;;;;;;4976219;28;20034;-76
2021/09/30 08:08:30;;;;;;;0.20;0.17;;;12.50;99.90;;;;;;4994116;28;20106;-75
2021/09/30 08:10:55;;;;;;;0.10;0.10;;;12.40;99.90;;;;;;4994327;28;20050;-75
2021/09/30 08:13:21;;;;;;;0.20;0.20;;;12.40;99.90;;;;;;4994101;28;20027;-75
2021/09/30 08:15:47;;;;;;;0.50;0.40;;;12.40;99.90;;;;;;4992679;28;20406;-76
2021/09/30 08:18:13;;;;;;;0.10;0.10;;;12.50;99.90;;;;;;4992599;28;20022;-75
2021/09/30 08:20:42;;;;;;;0.17;0.17;;;12.50;99.90;;;;;;4992680;28;20479;-75
2021/09/30 08:23:12;;;;;;;0.10;0.10;;;12.60;99.90;;;;;;4993668;28;20041;-76
2021/09/30 08:25:40;;;;;;;0.73;0.52;;;12.80;99.90;;;;;;4993070;28;20478;-75
2021/09/30 08:28:05;;;;;;;0.10;0.10;;;13.00;99.90;;;;;;4992803;28;20022;-75
2021/09/30 08:30:32;;;;;;;0.20;0.20;;;13.20;99.90;;;;;;4992397;28;20030;-75
2021/09/30 08:32:58;;;;;;;0.10;0.10;;;13.30;99.90;;;;;;4992421;28;20057;-76
2021/09/30 08:35:24;;;;;;;0.10;0.10;;;13.50;99.90;;;;;;4991813;28;20026;-75
2021/09/30 08:37:49;;;;;;;0.20;0.20;;;13.60;99.90;;;;;;4992161;28;20042;-75
2021/09/30 08:40:16;;;;;;;0.20;0.20;;;13.70;99.90;;;;;;4993629;28;20054;-75
2021/09/30 08:42:44;;;;;;;0.10;0.10;;;13.70;99.90;;;;;;4976213;28;20034;-75
2021/09/30 08:45:11;;;;;;;0.10;0.10;;;13.70;99.90;;;;;;4992021;28;20026;-75
2021/09/30 08:47:37;;;;;;;0.20;0.20;;;13.50;99.90;;;;;;4991922;28;20393;-76
2021/09/30 08:50:04;;;;;;;0.20;0.20;;;13.80;99.90;;;;;;4993530;28;20019;-75
2021/09/30 08:52:30;;;;;;;0.15;0.15;;;14.10;99.90;;;;;;4980151;28;20020;-75
2021/09/30 08:54:56;;;;;;;0.68;0.47;;;14.20;99.90;;;;;;4964234;28;20018;-76
2021/09/30 08:57:21;;;;;;;0.10;0.10;;;14.30;99.30;;;;;;4969089;28;20042;-76
2021/09/30 09:00:20;;;;;;;0.10;0.10;;;14.20;98.80;;;;;;4954487;28;20031;-75
2021/09/30 09:02:47;;;;;;;0.10;0.10;;;14.40;97.20;;;;;;4930869;28;20030;-76
2021/09/30 09:05:14;;;;;;;0.20;0.20;;;14.50;94.90;;;;;;4972177;28;20027;-75
2021/09/30 09:08:00;;;;;;;0.10;0.10;;;14.50;94.20;;;;;;4973400;28;20047;-77
2021/09/30 09:10:32;;;;;;;0.10;0.10;;;14.30;93.20;;;;;;4973494;28;20019;-76
2021/09/30 09:13:15;;;;;;;0.10;0.10;;;14.30;92.30;;;;;;4972479;28;20383;-76
2021/09/30 09:15:59;;;;;;;0.10;0.10;;;14.20;91.40;;;;;;4972703;28;20026;-76
2021/09/30 09:18:34;;;;;;;0.10;0.10;;;14.10;91.70;;;;;;4972245;28;20023;-76
2021/09/30 09:21:06;;;;;;;0.10;0.10;;;14.20;91.80;;;;;;4973597;28;20034;-76
2021/09/30 09:23:34;;;;;;;0.20;0.20;;;14.00;92.10;;;;;;4971851;28;20085;-76
2021/09/30 09:26:15;;;;;;;0.10;0.10;;;14.20;91.90;;;;;;4956570;28;20062;-76
2021/09/30 09:29:20;;;;;;;0.20;0.20;;;14.20;91.70;;;;;;4951157;29;20023;-76
2021/09/30 09:31:49;;;;;;;0.10;0.10;;;14.30;91.40;;;;;;4897838;29;20060;-75
2021/09/30 09:34:33;;;;;;;0.10;0.10;;;14.30;90.90;;;;;;4913520;29;20462;-75
2021/09/30 09:37:38;;;;;;;0.30;0.30;;;14.40;91.40;;;;;;4930553;29;20039;-75
2021/09/30 09:40:35;;;;;;;0.20;0.20;;;14.60;89.50;;;;;;5013698;23;20049;-89
2021/09/30 09:43:03;;;;;;;0.10;0.10;;;15.10;87.20;;;;;;4997898;28;20574;-89
2021/09/30 09:45:29;;;;;;;0.20;0.20;;;15.60;86.20;;;;;;4999515;28;20026;-89
2021/09/30 09:47:55;;;;;;;0.10;0.10;;;15.60;83.30;;;;;;5015374;28;20036;-89
2021/09/30 09:50:25;;;;;;;0.20;0.20;;;15.10;84.20;;;;;;5015428;28;20045;-89
2021/09/30 09:52:52;;;;;;;1.48;0.30;;;15.40;85.70;;;;;;4999459;28;20022;-92
2021/09/30 09:55:28;;;;;;;0.10;0.10;;;15.50;83.70;;;;;;4999806;28;20025;-91
2021/09/30 09:58:06;;;;;;;0.10;0.10;;;15.80;83.50;;;;;;5000179;28;20036;-92
2021/09/30 10:00:37;;;;;;;0.10;0.10;;;16.10;81.00;;;;;;5000947;28;20018;-91
2021/09/30 10:03:10;;;;;;;;;;;16.40;76.60;;;;;;5002561;28;20048;-92
2021/09/30 10:05:36;;;;;;;0.32;0.20;;;17.20;74.80;;;;;;5002280;28;19912;-92
2021/09/30 10:08:03;;;;;;;0.10;0.10;;;17.80;69.60;;;;;;5001501;28;20034;-92
2021/09/30 10:10:29;;;;;;;0.10;0.10;;;18.40;68.80;;;;;;5003349;28;20552;-93
2021/09/30 10:12:55;;;;;;;0.25;0.25;;;18.30;65.90;;;;;;5007811;28;20021;-92
2021/09/30 10:15:22;;;;;;;0.10;0.10;;;17.80;64.90;;;;;;5002129;28;20057;-92
2021/09/30 10:17:47;;;;;;;0.10;0.10;;;17.00;67.70;;;;;;5000882;28;20018;-93
2021/09/30 10:20:14;;;;;;;0.10;0.10;;;17.70;69.30;;;;;;5002572;28;20134;-92
2021/09/30 10:22:40;;;;;;;0.10;0.10;;;18.50;62.20;;;;;;4999973;28;20036;-93
2021/09/30 10:25:08;;;;;;;0.10;0.10;;;19.30;57.60;;;;;;5001545;28;20025;-92
2021/09/30 10:27:36;;;;;;;0.10;0.10;;;19.90;57.40;;;;;;4986175;28;20172;-93
2021/09/30 10:30:03;;;;;;;0.10;0.10;;;20.30;55.50;;;;;;5001802;28;20055;-92
2021/09/30 10:32:29;;;;;;;0.10;0.10;;;20.70;55.60;;;;;;5001936;28;20041;-93
2021/09/30 10:35:01;;;;;;;2.33;0.17;;;20.10;55.40;;;;;;5000259;28;20022;-92
2021/09/30 10:37:30;;;;;;;1.02;0.40;;;19.30;55.20;;;;;;4999565;28;20475;-92
2021/09/30 10:40:17;;;;;;;0.17;0.17;;;19.20;57.00;;;;;;5000738;28;20048;-93
2021/09/30 10:42:45;;;;;;;0.10;0.10;;;19.60;53.80;;;;;;4999624;28;20021;-93
2021/09/30 10:45:16;;;;;;;0.10;0.10;;;19.90;53.10;;;;;;4998827;28;20075;-92
2021/09/30 10:47:42;;;;;;;0.77;0.60;;;20.20;52.70;;;;;;5000376;28;20056;-92
2021/09/30 10:50:08;;;;;;;0.10;0.10;;;20.50;50.60;;;;;;5000002;28;20092;-93
2021/09/30 10:52:47;;;;;;;0.08;0.08;;;19.80;52.20;;;;;;5002264;28;20021;-93
2021/09/30 10:55:16;;;;;;;0.10;0.10;;;20.30;53.00;;;;;;5002634;28;20018;-92
2021/09/30 10:57:43;;;;;;;0.25;0.25;;;19.70;53.30;;;;;;5008276;28;20379;-92
2021/09/30 11:00:18;;;;;;;0.10;0.10;;;20.60;53.00;;;;;;5004188;28;20029;-93
2021/09/30 11:03:02;;;;;;;0.10;0.10;;;21.30;51.00;;;;;;5003038;28;20399;-93
2021/09/30 11:05:29;;;;;;;0.10;0.10;;;21.10;51.00;;;;;;5003619;28;20025;-92
2021/09/30 11:08:20;;;;;;;0.10;0.10;;;20.80;51.50;;;;;;5002341;28;20040;-92
2021/09/30 11:11:01;;;;;;;0.20;0.20;;;20.30;52.30;;;;;;5002963;28;20017;-92
2021/09/30 11:13:32;;;;;;;0.00;0.00;;;20.30;51.80;;;;;;5002445;28;20025;-93
2021/09/30 11:16:18;;;;;;;0.10;0.10;;;20.30;53.80;;;;;;5005085;28;20478;-92
2021/09/30 11:18:53;;;;;;;0.00;0.00;;;20.20;54.00;;;;;;5002529;28;20505;-93
2021/09/30 11:21:31;;;;;;;0.10;0.10;;;20.00;54.30;;;;;;5002533;28;20063;-92
2021/09/30 11:24:04;;;;;;;0.05;0.05;;;19.30;52.80;;;;;;5003336;28;20035;-93
2021/09/30 11:26:51;;;;;;;0.10;0.10;;;18.60;56.20;;;;;;5003833;28;20056;-93
2021/09/30 11:29:22;;;;;;;0.20;0.20;;;18.70;57.00;;;;;;5002952;28;20025;-92
2021/09/30 11:31:54;;;;;;;0.10;0.10;;;19.10;56.30;;;;;;5002689;28;20072;-92
2021/09/30 11:34:28;;;;;;;0.10;0.10;;;19.50;55.10;;;;;;5002233;28;20051;-92
2021/09/30 11:36:56;;;;;;;0.00;0.00;;;20.10;54.10;;;;;;5001257;28;20032;-92
2021/09/30 11:39:30;;;;;;;0.10;0.10;;;20.70;53.20;;;;;;5001769;28;20064;-92
2021/09/30 11:41:56;;;;;;;0.00;0.00;;;21.40;51.90;;;;;;5003209;28;20128;-92
2021/09/30 11:44:22;;;;;;;0.10;0.10;;;21.60;50.40;;;;;;5001878;28;20486;-93
2021/09/30 11:46:53;;;;;;;0.55;0.20;;;21.70;50.10;;;;;;5001453;28;20060;-92
2021/09/30 11:49:19;;;;;;;0.10;0.10;;;21.60;51.00;;;;;;5001574;28;20021;-93
2021/09/30 11:51:47;;;;;;;0.10;0.10;;;21.40;51.60;;;;;;5002288;28;20082;-92
2021/09/30 11:54:21;;;;;;;0.00;0.00;;;21.30;52.50;;;;;;5002772;28;20021;-93
2021/09/30 11:56:56;;;;;;;0.10;0.10;;;21.70;50.90;;;;;;5002401;28;20021;-92
2021/09/30 11:59:24;;;;;;;0.10;0.10;;;21.40;51.50;;;;;;5003901;28;20025;-93
2021/09/30 12:01:55;;;;;;;0.10;0.10;;;20.90;52.10;;;;;;4998049;28;20502;-92
2021/09/30 12:04:41;;;;;;;0.08;0.08;;;21.00;54.00;;;;;;5001783;28;20080;-92
2021/09/30 12:07:34;;;;;;;0.10;0.10;;;21.70;52.00;;;;;;5000079;28;20075;-91
2021/09/30 12:10:00;;;;;;;0.00;0.00;;;22.10;50.70;;;;;;4978985;28;20040;-91
2021/09/30 12:12:36;;;;;;;0.00;0.00;;;22.20;49.70;;;;;;4980462;28;20032;-91
2021/09/30 12:15:04;;;;;;;0.10;0.10;;;21.30;50.00;;;;;;4981421;28;20021;-91
2021/09/30 12:17:32;;;;;;;0.10;0.10;;;21.00;51.70;;;;;;4988775;28;20071;-91
2021/09/30 12:19:58;;;;;;;0.52;0.47;;;21.10;51.40;;;;;;4962418;28;20022;-91
2021/09/30 12:22:27;;;;;;;0.10;0.10;;;21.20;51.90;;;;;;4962641;28;20022;-91
2021/09/30 12:25:02;;;;;;;0.15;0.15;;;21.50;50.00;;;;;;4969168;28;20109;-92
2021/09/30 12:27:35;;;;;;;0.00;0.00;;;21.30;50.60;;;;;;4983129;28;20034;-92
2021/09/30 12:30:26;;;;;;;0.10;0.10;;;21.10;51.40;;;;;;4981148;28;20034;-91
2021/09/30 12:33:03;;;;;;;0.10;0.10;;;21.30;51.80;;;;;;4982837;28;20117;-91
2021/09/30 12:35:31;;;;;;;0.20;0.20;;;21.10;51.30;;;;;;4982351;28;20030;-91
2021/09/30 12:38:01;;;;;;;0.10;0.10;;;20.90;50.30;;;;;;4982225;28;20042;-91
2021/09/30 12:40:34;;;;;;;0.00;0.00;;;20.50;52.00;;;;;;4981419;28;20088;-91
2021/09/30 12:43:07;;;;;;;0.30;0.22;;;20.10;53.70;;;;;;4980972;28;20046;-91
2021/09/30 12:45:40;;;;;;;0.10;0.10;;;19.50;53.40;;;;;;4980809;28;20418;-92
2021/09/30 12:48:12;;;;;;;0.10;0.10;;;18.80;55.10;;;;;;4981864;28;20475;-91
2021/09/30 12:50:45;;;;;;;0.10;0.10;;;18.30;56.50;;;;;;4981766;28;20113;-91
2021/09/30 12:53:12;;;;;;;0.10;0.10;;;17.80;57.70;;;;;;4981776;28;20514;-91
2021/09/30 12:55:39;;;;;;;0.10;0.10;;;18.00;58.10;;;;;;4992327;28;20057;-91
2021/09/30 12:58:05;;;;;;;0.08;0.08;;;18.20;57.00;;;;;;4978802;28;20070;-91
2021/09/30 13:00:36;;;;;;;0.10;0.10;;;18.20;57.50;;;;;;4977736;28;20509;-92
2021/09/30 13:03:14;;;;;;;0.68;0.43;;;18.40;56.30;;;;;;4977817;28;20018;-91
2021/09/30 13:05:50;;;;;;;0.10;0.10;;;18.00;57.30;;;;;;4977576;28;20057;-91
2021/09/30 13:08:38;;;;;;;0.10;0.10;;;18.10;57.90;;;;;;4977135;28;20492;-91
2021/09/30 13:11:30;;;;;;;0.17;0.17;;;17.70;58.30;;;;;;4961104;28;20096;-91
2021/09/30 13:14:15;;;;;;;0.10;0.10;;;18.00;57.90;;;;;;4977122;28;20117;-91
2021/09/30 13:16:42;;;;;;;0.10;0.10;;;18.40;58.20;;;;;;4961010;28;20467;-91
2021/09/30 13:19:08;;;;;;;0.10;0.10;;;18.30;57.20;;;;;;4976712;28;20026;-91
2021/09/30 13:21:54;;;;;;;0.15;0.15;;;18.70;56.70;;;;;;4994509;28;20015;-91
2021/09/30 13:24:20;;;;;;;0.10;0.10;;;18.20;56.20;;;;;;4993988;28;20026;-91
2021/09/30 13:26:45;;;;;;;0.10;0.10;;;18.50;57.70;;;;;;4987116;28;20538;-91
2021/09/30 13:29:11;;;;;;;0.10;0.10;;;18.30;57.00;;;;;;4988874;28;20027;-91
2021/09/30 13:31:37;;;;;;;0.55;0.55;;;18.50;57.60;;;;;;4978902;28;20120;-91
2021/09/30 13:34:03;;;;;;;0.10;0.10;;;18.60;57.90;;;;;;4978089;28;20046;-90
2021/09/30 13:36:31;;;;;;;0.00;0.00;;;18.40;57.10;;;;;;4977349;28;20054;-91
2021/09/30 13:38:56;;;;;;;0.10;0.10;;;18.60;56.30;;;;;;4978693;28;20092;-91
2021/09/30 13:41:22;;;;;;;0.43;0.40;;;18.70;56.80;;;;;;4977256;28;20031;-90
2021/09/30 13:43:48;;;;;;;0.10;0.10;;;18.70;56.40;;;;;;4976840;28;20053;-91
2021/09/30 13:46:14;;;;;;;0.10;0.10;;;18.60;56.40;;;;;;4977449;28;20122;-91
2021/09/30 13:48:40;;;;;;;0.20;0.20;;;18.60;56.80;;;;;;4976716;28;20061;-91
2021/09/30 13:51:06;;;;;;;0.10;0.10;;;18.80;56.40;;;;;;4977188;28;20019;-91
2021/09/30 13:53:31;;;;;;;0.10;0.10;;;18.60;56.20;;;;;;4985851;28;20022;-91
2021/09/30 13:55:57;;;;;;;0.10;0.10;;;18.40;57.00;;;;;;4999894;28;20049;-91
2021/09/30 13:58:23;;;;;;;0.10;0.10;;;18.40;57.00;;;;;;4999965;28;20386;-91
2021/09/30 14:00:49;;;;;;;0.20;0.20;;;18.40;57.10;;;;;;4993269;28;20029;-91
2021/09/30 14:03:14;;;;;;;0.10;0.10;;;18.50;56.60;;;;;;4990048;28;20022;-91
2021/09/30 14:05:40;;;;;;;0.10;0.10;;;18.20;56.80;;;;;;4982993;28;20081;-92
2021/09/30 14:08:07;;;;;;;0.10;0.10;;;18.00;57.50;;;;;;4996747;28;20025;-91
2021/09/30 14:10:33;;;;;;;0.10;0.10;;;18.10;57.50;;;;;;5000851;28;20505;-91
2021/09/30 14:12:59;;;;;;;0.10;0.10;;;18.30;57.30;;;;;;4999410;28;20025;-91
2021/09/30 14:15:25;;;;;;;0.10;0.10;;;18.60;56.30;;;;;;5000166;28;20025;-91
2021/09/30 14:17:51;;;;;;;0.10;0.10;;;18.80;55.80;;;;;;5000541;28;20044;-92
2021/09/30 14:20:54;;;;;;;0.20;0.20;;;18.90;55.70;;;;;;5001228;28;20022;-91
2021/09/30 14:23:22;;;;;;;0.10;0.10;;;18.80;55.70;;;;;;5006755;28;20033;-94
2021/09/30 14:25:52;;;;;;;0.20;0.20;;;18.20;55.80;;;;;;5000567;28;20025;-91
2021/09/30 14:28:18;;;;;;;0.10;0.10;;;18.00;57.80;;;;;;5002232;28;20032;-92
2021/09/30 14:30:44;;;;;;;0.10;0.10;;;18.10;56.60;;;;;;5004691;28;20026;-91
2021/09/30 14:33:10;;;;;;;0.10;0.10;;;18.00;57.20;;;;;;5002198;28;20045;-91
2021/09/30 14:35:36;;;;;;;0.10;0.10;;;18.00;57.70;;;;;;5002835;28;20029;-92
2021/09/30 14:38:02;;;;;;;0.10;0.10;;;17.90;57.20;;;;;;5002865;28;20036;-91
2021/09/30 14:40:28;;;;;;;0.20;0.20;;;18.00;58.10;;;;;;5002406;28;20439;-91
2021/09/30 14:42:54;;;;;;;0.10;0.10;;;18.00;57.40;;;;;;5005398;28;20057;-91
2021/09/30 14:45:20;;;;;;;0.20;0.20;;;17.80;57.00;;;;;;5003369;28;20021;-91
2021/09/30 14:47:46;;;;;;;0.10;0.10;;;17.90;57.90;;;;;;5005623;28;20037;-91
2021/09/30 14:50:12;;;;;;;0.30;0.30;;;18.00;57.40;;;;;;5010299;28;20033;-91
2021/09/30 14:52:37;;;;;;;0.00;0.00;;;18.00;56.60;;;;;;5008079;28;20060;-92
2021/09/30 14:55:04;;;;;;;0.10;0.10;;;18.10;57.20;;;;;;5003864;28;20032;-91
2021/09/30 14:57:31;;;;;;;0.10;0.10;;;18.00;57.20;;;;;;5002942;28;20026;-92
2021/09/30 14:59:57;;;;;;;0.10;0.10;;;17.70;57.50;;;;;;5003287;28;20455;-91
2021/09/30 15:02:23;;;;;;;0.10;0.10;;;17.90;58.40;;;;;;5004453;28;20121;-92
2021/09/30 15:04:48;;;;;;;0.10;0.10;;;18.10;57.30;;;;;;5004199;28;20022;-92
2021/09/30 15:07:20;;;;;;;0.10;0.10;;;18.40;57.20;;;;;;5004739;28;20029;-92
2021/09/30 15:09:45;;;;;;;0.10;0.10;;;18.20;56.30;;;;;;5003582;28;20073;-92
2021/09/30 15:12:11;;;;;;;0.10;0.10;;;17.90;57.10;;;;;;5003316;28;20125;-91
2021/09/30 15:14:37;;;;;;;0.10;0.10;;;17.90;58.80;;;;;;5003642;28;20084;-91
2021/09/30 15:19:47;;;;;;;0.10;0.10;;;17.80;60.60;;;;;;5019675;28;20021;-92
2021/09/30 15:22:13;;;;;;;0.10;0.10;;;17.70;60.20;;;;;;5003095;28;20013;-92
2021/09/30 15:24:39;;;;;;;0.10;0.10;;;17.70;60.30;;;;;;5004133;28;20113;-92
2021/09/30 15:27:05;;;;;;;0.13;0.13;;;17.50;61.00;;;;;;5004892;28;20525;-92
2021/09/30 15:29:32;;;;;;;0.30;0.30;;;17.40;61.80;;;;;;5004421;28;20075;-92
2021/09/30 15:31:58;;;;;;;0.10;0.10;;;17.20;62.20;;;;;;5003054;28;20025;-92
2021/09/30 15:34:24;;;;;;;0.10;0.10;;;17.00;63.20;;;;;;5002451;28;20037;-92
2021/09/30 15:36:49;;;;;;;1.90;0.57;;;17.10;63.40;;;;;;5001752;28;20021;-91
2021/09/30 15:39:15;;;;;;;0.10;0.10;;;16.80;65.00;;;;;;5002360;28;20044;-91
2021/09/30 15:41:42;;;;;;;0.10;0.10;;;16.90;63.90;;;;;;5001364;28;20025;-91
2021/09/30 15:44:09;;;;;;;0.10;0.10;;;17.00;64.50;;;;;;5001529;28;20494;-91